sensor_id;sensor_type;location;lat;lon;timestamp;P1;durP1;ratioP1;P2;durP2;ratioP2
59314;SDS011;46521;50.160;20.802;2022-10-16T00:00:00;17.05;;;11.10;;
59314;SDS011;46521;50.160;20.802;2022-10-16T00:10:02;16.87;;;11.10;;
59314;SDS011;46521;50.160;20.802;2022-10-16T00:20:04;16.23;;;10.10;;
59314;SDS011;46521;50.160;20.802;2022-10-16T00:30:06;17.70;;;11.10;;
59314;SDS011;46521;50.160;20.802;2022-10-16T00:40:09;17.00;;;11.50;;
59314;SDS011;46521;50.160;20.802;2022-10-16T00:50:13;17.73;;;11.37;;
59314;SDS011;46521;50.160;20.802;2022-10-16T01:00:23;15.90;;;10.30;;
59314;SDS011;46521;50.160;20.802;2022-10-16T01:20:59;14.30;;;10.60;;
59314;SDS011;46521;50.160;20.802;2022-10-16T01:31:02;17.33;;;10.60;;
59314;SDS011;46521;50.160;20.802;2022-10-16T01:41:06;15.47;;;9.83;;
59314;SDS011;46521;50.160;20.802;2022-10-16T01:51:13;13.00;;;9.60;;
59314;SDS011;46521;50.160;20.802;2022-10-16T02:01:16;15.40;;;9.30;;
59314;SDS011;46521;50.160;20.802;2022-10-16T02:11:22;14.10;;;8.80;;
59314;SDS011;46521;50.160;20.802;2022-10-16T02:21:25;14.30;;;8.70;;
59314;SDS011;46521;50.160;20.802;2022-10-16T02:31:31;14.37;;;9.07;;
59314;SDS011;46521;50.160;20.802;2022-10-16T02:41:35;13.47;;;9.00;;
59314;SDS011;46521;50.160;20.802;2022-10-16T02:51:37;15.83;;;9.50;;
59314;SDS011;46521;50.160;20.802;2022-10-16T03:01:38;13.70;;;9.10;;
59314;SDS011;46521;50.160;20.802;2022-10-16T03:11:39;13.80;;;9.50;;
59314;SDS011;46521;50.160;20.802;2022-10-16T03:21:41;15.57;;;8.70;;
59314;SDS011;46521;50.160;20.802;2022-10-16T03:31:42;12.63;;;8.27;;
59314;SDS011;46521;50.160;20.802;2022-10-16T03:41:43;13.83;;;8.57;;
59314;SDS011;46521;50.160;20.802;2022-10-16T03:51:45;14.53;;;9.20;;
59314;SDS011;46521;50.160;20.802;2022-10-16T04:01:46;22.25;;;12.65;;
59314;SDS011;46521;50.160;20.802;2022-10-16T04:11:48;39.50;;;24.10;;
59314;SDS011;46521;50.160;20.802;2022-10-16T04:21:49;30.87;;;18.47;;
59314;SDS011;46521;50.160;20.802;2022-10-16T04:31:50;15.25;;;10.30;;
59314;SDS011;46521;50.160;20.802;2022-10-16T04:41:52;22.10;;;12.70;;
59314;SDS011;46521;50.160;20.802;2022-10-16T04:51:53;16.73;;;9.97;;
59314;SDS011;46521;50.160;20.802;2022-10-16T05:01:54;12.25;;;8.15;;
59314;SDS011;46521;50.160;20.802;2022-10-16T05:11:56;13.50;;;8.30;;
59314;SDS011;46521;50.160;20.802;2022-10-16T05:21:57;12.70;;;8.60;;
59314;SDS011;46521;50.160;20.802;2022-10-16T05:31:58;13.15;;;8.65;;
59314;SDS011;46521;50.160;20.802;2022-10-16T05:42:00;14.65;;;9.20;;
59314;SDS011;46521;50.160;20.802;2022-10-16T05:52:01;12.60;;;8.50;;
59314;SDS011;46521;50.160;20.802;2022-10-16T06:02:03;11.55;;;8.40;;
59314;SDS011;46521;50.160;20.802;2022-10-16T06:12:04;13.45;;;9.15;;
59314;SDS011;46521;50.160;20.802;2022-10-16T06:22:06;12.70;;;8.70;;
59314;SDS011;46521;50.160;20.802;2022-10-16T06:32:07;12.50;;;8.37;;
59314;SDS011;46521;50.160;20.802;2022-10-16T06:42:09;13.43;;;8.73;;
59314;SDS011;46521;50.160;20.802;2022-10-16T06:52:10;15.10;;;8.27;;
59314;SDS011;46521;50.160;20.802;2022-10-16T07:02:11;13.93;;;8.50;;
59314;SDS011;46521;50.160;20.802;2022-10-16T07:12:13;14.57;;;8.77;;
59314;SDS011;46521;50.160;20.802;2022-10-16T07:22:14;11.63;;;7.98;;
59314;SDS011;46521;50.160;20.802;2022-10-16T07:32:15;12.17;;;8.07;;
59314;SDS011;46521;50.160;20.802;2022-10-16T07:42:17;11.83;;;8.33;;
59314;SDS011;46521;50.160;20.802;2022-10-16T07:52:18;13.43;;;7.90;;
59314;SDS011;46521;50.160;20.802;2022-10-16T08:02:20;11.25;;;7.60;;
59314;SDS011;46521;50.160;20.802;2022-10-16T08:12:21;11.27;;;7.17;;
59314;SDS011;46521;50.160;20.802;2022-10-16T08:22:22;10.75;;;7.63;;
59314;SDS011;46521;50.160;20.802;2022-10-16T08:32:23;10.40;;;7.50;;
59314;SDS011;46521;50.160;20.802;2022-10-16T08:52:44;10.23;;;7.00;;
59314;SDS011;46521;50.160;20.802;2022-10-16T09:13:02;12.07;;;7.63;;
59314;SDS011;46521;50.160;20.802;2022-10-16T09:23:22;11.20;;;7.70;;
59314;SDS011;46521;50.160;20.802;2022-10-16T09:33:33;13.20;;;7.73;;
59314;SDS011;46521;50.160;20.802;2022-10-16T09:43:57;10.40;;;7.27;;
59314;SDS011;46521;50.160;20.802;2022-10-16T09:54:22;11.93;;;7.93;;
59314;SDS011;46521;50.160;20.802;2022-10-16T10:04:23;13.33;;;7.40;;
59314;SDS011;46521;50.160;20.802;2022-10-16T10:14:27;11.75;;;7.60;;
59314;SDS011;46521;50.160;20.802;2022-10-16T10:24:40;11.30;;;7.33;;
59314;SDS011;46521;50.160;20.802;2022-10-16T11:05:36;10.63;;;6.43;;
59314;SDS011;46521;50.160;20.802;2022-10-16T11:15:44;11.17;;;6.43;;
59314;SDS011;46521;50.160;20.802;2022-10-16T11:25:48;10.90;;;6.55;;
59314;SDS011;46521;50.160;20.802;2022-10-16T11:46:18;11.97;;;6.93;;
59314;SDS011;46521;50.160;20.802;2022-10-16T11:56:22;16.28;;;6.83;;
59314;SDS011;46521;50.160;20.802;2022-10-16T12:06:34;10.55;;;6.60;;
59314;SDS011;46521;50.160;20.802;2022-10-16T12:16:57;10.93;;;6.70;;
59314;SDS011;46521;50.160;20.802;2022-10-16T12:27:17;10.90;;;7.60;;
59314;SDS011;46521;50.160;20.802;2022-10-16T12:37:33;10.47;;;6.97;;
59314;SDS011;46521;50.160;20.802;2022-10-16T12:47:38;14.05;;;8.33;;
59314;SDS011;46521;50.160;20.802;2022-10-16T13:08:35;10.80;;;7.30;;
59314;SDS011;46521;50.160;20.802;2022-10-16T13:29:19;12.90;;;9.25;;
59314;SDS011;46521;50.160;20.802;2022-10-16T13:49:29;14.40;;;11.50;;
59314;SDS011;46521;50.160;20.802;2022-10-16T13:59:34;12.00;;;8.97;;
59314;SDS011;46521;50.160;20.802;2022-10-16T14:09:38;13.30;;;8.93;;
59314;SDS011;46521;50.160;20.802;2022-10-16T14:19:40;12.75;;;8.55;;
59314;SDS011;46521;50.160;20.802;2022-10-16T14:29:46;13.80;;;9.20;;
59314;SDS011;46521;50.160;20.802;2022-10-16T14:39:50;12.75;;;8.18;;
59314;SDS011;46521;50.160;20.802;2022-10-16T14:49:53;15.53;;;10.27;;
59314;SDS011;46521;50.160;20.802;2022-10-16T14:59:56;17.60;;;15.23;;
59314;SDS011;46521;50.160;20.802;2022-10-16T15:09:58;13.40;;;10.20;;
59314;SDS011;46521;50.160;20.802;2022-10-16T15:19:59;16.20;;;9.87;;
59314;SDS011;46521;50.160;20.802;2022-10-16T15:30:00;29.30;;;18.40;;
59314;SDS011;46521;50.160;20.802;2022-10-16T15:40:02;15.35;;;10.40;;
59314;SDS011;46521;50.160;20.802;2022-10-16T15:50:04;16.00;;;11.50;;
59314;SDS011;46521;50.160;20.802;2022-10-16T16:00:07;19.65;;;17.20;;
59314;SDS011;46521;50.160;20.802;2022-10-16T16:10:11;63.60;;;56.70;;
59314;SDS011;46521;50.160;20.802;2022-10-16T16:20:13;60.85;;;54.75;;
59314;SDS011;46521;50.160;20.802;2022-10-16T16:30:14;64.20;;;52.27;;
59314;SDS011;46521;50.160;20.802;2022-10-16T16:40:15;106.35;;;65.80;;
59314;SDS011;46521;50.160;20.802;2022-10-16T16:50:17;46.20;;;35.30;;
59314;SDS011;46521;50.160;20.802;2022-10-16T17:00:18;17.67;;;12.93;;
59314;SDS011;46521;50.160;20.802;2022-10-16T17:10:20;20.23;;;13.73;;
59314;SDS011;46521;50.160;20.802;2022-10-16T17:20:21;17.23;;;11.55;;
59314;SDS011;46521;50.160;20.802;2022-10-16T17:30:23;22.30;;;19.95;;
59314;SDS011;46521;50.160;20.802;2022-10-16T17:40:25;25.68;;;20.78;;
59314;SDS011;46521;50.160;20.802;2022-10-16T17:50:26;21.75;;;17.45;;
59314;SDS011;46521;50.160;20.802;2022-10-16T18:00:28;16.40;;;11.50;;
59314;SDS011;46521;50.160;20.802;2022-10-16T18:10:29;13.13;;;8.45;;
59314;SDS011;46521;50.160;20.802;2022-10-16T18:20:31;14.20;;;8.90;;
59314;SDS011;46521;50.160;20.802;2022-10-16T18:30:32;16.60;;;10.23;;
59314;SDS011;46521;50.160;20.802;2022-10-16T18:40:34;15.40;;;10.40;;
59314;SDS011;46521;50.160;20.802;2022-10-16T18:50:36;19.30;;;13.97;;
59314;SDS011;46521;50.160;20.802;2022-10-16T19:00:37;14.53;;;10.40;;
59314;SDS011;46521;50.160;20.802;2022-10-16T19:10:39;15.17;;;10.30;;
59314;SDS011;46521;50.160;20.802;2022-10-16T19:20:42;14.50;;;9.95;;
59314;SDS011;46521;50.160;20.802;2022-10-16T19:30:43;16.40;;;9.80;;
59314;SDS011;46521;50.160;20.802;2022-10-16T19:40:46;15.20;;;10.80;;
59314;SDS011;46521;50.160;20.802;2022-10-16T19:50:48;17.10;;;10.73;;
59314;SDS011;46521;50.160;20.802;2022-10-16T20:00:49;15.90;;;11.83;;
59314;SDS011;46521;50.160;20.802;2022-10-16T20:10:52;16.67;;;11.03;;
59314;SDS011;46521;50.160;20.802;2022-10-16T20:20:54;17.50;;;11.53;;
59314;SDS011;46521;50.160;20.802;2022-10-16T20:30:56;15.20;;;9.95;;
59314;SDS011;46521;50.160;20.802;2022-10-16T20:41:01;14.87;;;9.90;;
59314;SDS011;46521;50.160;20.802;2022-10-16T20:51:10;17.25;;;10.80;;
59314;SDS011;46521;50.160;20.802;2022-10-16T21:01:31;15.68;;;10.33;;
59314;SDS011;46521;50.160;20.802;2022-10-16T21:11:35;18.05;;;10.90;;
59314;SDS011;46521;50.160;20.802;2022-10-16T21:21:38;14.98;;;10.75;;
59314;SDS011;46521;50.160;20.802;2022-10-16T21:31:39;14.45;;;9.80;;
59314;SDS011;46521;50.160;20.802;2022-10-16T21:41:42;16.50;;;10.70;;
59314;SDS011;46521;50.160;20.802;2022-10-16T21:51:45;14.50;;;10.70;;
59314;SDS011;46521;50.160;20.802;2022-10-16T22:12:15;15.33;;;9.97;;
59314;SDS011;46521;50.160;20.802;2022-10-16T22:22:19;14.57;;;10.40;;
59314;SDS011;46521;50.160;20.802;2022-10-16T22:32:20;13.90;;;10.30;;
59314;SDS011;46521;50.160;20.802;2022-10-16T22:42:22;14.90;;;9.00;;
59314;SDS011;46521;50.160;20.802;2022-10-16T22:52:23;14.25;;;9.50;;
59314;SDS011;46521;50.160;20.802;2022-10-16T23:02:24;14.60;;;9.53;;
59314;SDS011;46521;50.160;20.802;2022-10-16T23:12:26;14.58;;;9.93;;
59314;SDS011;46521;50.160;20.802;2022-10-16T23:22:27;13.60;;;8.85;;
59314;SDS011;46521;50.160;20.802;2022-10-16T23:32:28;14.85;;;10.15;;
